Airfield :
LOGIN :

Register | Disclaimer

   EN    FR    IT 

 










Legend :    VFR   Marginal VFR   IFR   Intensive IFR   Very Intensive IFR
Visi :
Ceiling :
>= 8 km
>= 3000ft
5 to 8 km
1000 to 3000 ft
1500m to 5 km
500 to 1000 ft
800 to 1500m
200 to 500 ft
< 800m
< 200 ft
Symbols :   Thunderstorms  Fog  Heavy snow  Heavy precipitations  Wind > 20 kt
SIGMETs :     Misc.  Thunderstorms  Icing  Turbulence  Mountain Waves  Volcanic Ashes






- Airport Elevation : 682 ft
- IATA code : VTB


UMII - Vitebsk

CURRENT METAR :
  • 021300Z 23009G12MPS 9999 BKN031CB 05/02 Q1002 R23/290065 TEMPO 2000 SHRASN BKN005

EXPIRED METARs :
  • 021200Z 23005G08MPS 9000 SCT010 BKN029CB 04/02 Q1002 R23/290065 TEMPO 2000 SHRA BKN005
  • 021100Z 22007G10MPS 7000 -SHRA BKN009 BKN024CB 03/02 Q1002 R23/290065 TEMPO 2100 BKN005
  • 021040Z 22007G11MPS 6000 -SHRA BKN008 BKN022CB 02/01 Q1001 TEMPO 2100 BKN005

TAF TAF UMII
Valid from the 02 at 12:00 until the 02 at 21:00 UTC


021110Z 0212/0221 23007G12MPS 6000 BKN007
TEMPO 0212/0221 VRB15MPS 0600 +SHRASN BKN002 BKN012CB



MET'MAP, your aeronautical weather chart ! - Copyright ORBIFLY December 2007 - Disclaimer

ORBIFLY MET'MAP TEAM :

Programming & Development : Alexandra Zaïnal
Concept & original design : Baudouin d'Aumeries
Assistance for programming : Marc-Olivier Méhu
Technical & hardware support : Manuel Goepfert

Contact : metmap@orbifly.com




SOURCES & CREDITS :

   NOAA